Terminal Aerodrome Forecast
Issued by NWS Duluth, MN

Home | Current Version | Previous Version | Text Only | Print | Product List | Glossary On
Versions: 1 2 3 4 5 6 7 8 9 10 11 12 13 14 15 16 17 18 19 20 21 22 23 24 25 26 27 28 29
000
FTUS43 KDLH 190540
TAFDLH
TAF
KDLH 190540Z 1906/2006 14007KT P6SM OVC023
     FM190900 09005KT 3SM BR OVC006
     FM191400 12006KT P6SM OVC010
     FM191600 13010KT P6SM OVC015
     FM191900 13012G25KT P6SM SCT040
     FM200400 11012KT P6SM SCT050 WS020/16040KT=

USA.gov is the U.S. government's official web portal to all federal, state and local government web resources and services.